sensor_id;sensor_type;location;lat;lon;timestamp;P1;durP1;ratioP1;P2;durP2;ratioP2
817;SDS011;391;51.052;6.954;2023-03-01T00:00:25;8.45;;;6.35;;
817;SDS011;391;51.052;6.954;2023-03-01T00:02:29;9.40;;;6.85;;
817;SDS011;391;51.052;6.954;2023-03-01T00:04:32;6.70;;;5.95;;
817;SDS011;391;51.052;6.954;2023-03-01T00:06:37;12.40;;;7.50;;
817;SDS011;391;51.052;6.954;2023-03-01T00:08:42;7.82;;;7.03;;
817;SDS011;391;51.052;6.954;2023-03-01T00:10:45;8.82;;;6.60;;
817;SDS011;391;51.052;6.954;2023-03-01T00:12:49;7.25;;;6.30;;
817;SDS011;391;51.052;6.954;2023-03-01T00:14:52;8.77;;;6.32;;
817;SDS011;391;51.052;6.954;2023-03-01T00:16:55;5.50;;;5.00;;
817;SDS011;391;51.052;6.954;2023-03-01T00:18:59;8.55;;;6.07;;
817;SDS011;391;51.052;6.954;2023-03-01T00:21:02;8.30;;;6.00;;
817;SDS011;391;51.052;6.954;2023-03-01T00:23:06;6.00;;;5.40;;
817;SDS011;391;51.052;6.954;2023-03-01T00:25:11;9.95;;;7.40;;
817;SDS011;391;51.052;6.954;2023-03-01T00:27:14;7.53;;;6.25;;
817;SDS011;391;51.052;6.954;2023-03-01T00:29:17;7.18;;;5.57;;
817;SDS011;391;51.052;6.954;2023-03-01T00:31:22;9.63;;;6.80;;
817;SDS011;391;51.052;6.954;2023-03-01T00:33:27;6.25;;;5.35;;
817;SDS011;391;51.052;6.954;2023-03-01T00:35:31;7.20;;;5.93;;
817;SDS011;391;51.052;6.954;2023-03-01T00:37:35;6.30;;;5.43;;
817;SDS011;391;51.052;6.954;2023-03-01T00:39:38;7.03;;;6.35;;
817;SDS011;391;51.052;6.954;2023-03-01T00:41:43;8.60;;;6.75;;
817;SDS011;391;51.052;6.954;2023-03-01T00:43:47;6.20;;;5.22;;
817;SDS011;391;51.052;6.954;2023-03-01T00:45:50;7.00;;;6.32;;
817;SDS011;391;51.052;6.954;2023-03-01T00:47:54;7.90;;;5.55;;
817;SDS011;391;51.052;6.954;2023-03-01T00:49:57;7.03;;;6.32;;
817;SDS011;391;51.052;6.954;2023-03-01T00:52:01;5.32;;;4.82;;
817;SDS011;391;51.052;6.954;2023-03-01T00:54:04;8.18;;;5.90;;
817;SDS011;391;51.052;6.954;2023-03-01T00:56:09;7.35;;;6.45;;
817;SDS011;391;51.052;6.954;2023-03-01T00:58:15;7.88;;;5.80;;
817;SDS011;391;51.052;6.954;2023-03-01T01:00:19;6.20;;;5.60;;
817;SDS011;391;51.052;6.954;2023-03-01T01:02:23;6.78;;;6.07;;
817;SDS011;391;51.052;6.954;2023-03-01T01:04:26;7.50;;;6.22;;
817;SDS011;391;51.052;6.954;2023-03-01T01:06:30;5.65;;;5.15;;
817;SDS011;391;51.052;6.954;2023-03-01T01:08:35;5.57;;;4.65;;
817;SDS011;391;51.052;6.954;2023-03-01T01:10:38;6.30;;;5.63;;
817;SDS011;391;51.052;6.954;2023-03-01T01:12:42;6.47;;;5.70;;
817;SDS011;391;51.052;6.954;2023-03-01T01:14:49;8.27;;;6.10;;
817;SDS011;391;51.052;6.954;2023-03-01T01:16:53;7.90;;;5.22;;
817;SDS011;391;51.052;6.954;2023-03-01T01:18:57;8.73;;;6.30;;
817;SDS011;391;51.052;6.954;2023-03-01T01:21:05;7.03;;;5.68;;
817;SDS011;391;51.052;6.954;2023-03-01T01:23:10;8.82;;;6.45;;
817;SDS011;391;51.052;6.954;2023-03-01T01:25:13;6.60;;;5.65;;
817;SDS011;391;51.052;6.954;2023-03-01T01:27:17;5.70;;;5.20;;
817;SDS011;391;51.052;6.954;2023-03-01T01:29:20;6.22;;;5.60;;
817;SDS011;391;51.052;6.954;2023-03-01T01:31:25;7.50;;;5.72;;
817;SDS011;391;51.052;6.954;2023-03-01T01:33:30;5.40;;;4.90;;
817;SDS011;391;51.052;6.954;2023-03-01T01:35:33;6.22;;;5.60;;
817;SDS011;391;51.052;6.954;2023-03-01T01:37:37;6.78;;;5.78;;
817;SDS011;391;51.052;6.954;2023-03-01T01:39:40;6.18;;;5.57;;
817;SDS011;391;51.052;6.954;2023-03-01T01:41:43;6.75;;;5.22;;
817;SDS011;391;51.052;6.954;2023-03-01T01:43:48;5.90;;;5.28;;
817;SDS011;391;51.052;6.954;2023-03-01T01:45:52;5.82;;;5.22;;
817;SDS011;391;51.052;6.954;2023-03-01T01:48:02;6.82;;;4.88;;
817;SDS011;391;51.052;6.954;2023-03-01T01:50:09;5.75;;;4.70;;
817;SDS011;391;51.052;6.954;2023-03-01T01:52:22;10.43;;;9.05;;
817;SDS011;391;51.052;6.954;2023-03-01T01:54:30;15.52;;;13.48;;
817;SDS011;391;51.052;6.954;2023-03-01T01:56:39;15.23;;;10.80;;
817;SDS011;391;51.052;6.954;2023-03-01T01:58:50;11.27;;;8.98;;
817;SDS011;391;51.052;6.954;2023-03-01T02:00:54;11.65;;;8.30;;
817;SDS011;391;51.052;6.954;2023-03-01T02:02:59;9.73;;;8.40;;
817;SDS011;391;51.052;6.954;2023-03-01T02:05:08;9.10;;;6.63;;
817;SDS011;391;51.052;6.954;2023-03-01T02:07:19;8.68;;;6.93;;
817;SDS011;391;51.052;6.954;2023-03-01T02:09:24;8.05;;;7.25;;
817;SDS011;391;51.052;6.954;2023-03-01T02:11:29;5.93;;;5.32;;
817;SDS011;391;51.052;6.954;2023-03-01T02:13:34;6.78;;;5.30;;
817;SDS011;391;51.052;6.954;2023-03-01T02:15:38;5.93;;;5.30;;
817;SDS011;391;51.052;6.954;2023-03-01T02:17:43;7.40;;;6.50;;
817;SDS011;391;51.052;6.954;2023-03-01T02:19:50;5.75;;;5.22;;
817;SDS011;391;51.052;6.954;2023-03-01T02:22:11;7.60;;;6.30;;
817;SDS011;391;51.052;6.954;2023-03-01T02:24:24;6.60;;;5.90;;
817;SDS011;391;51.052;6.954;2023-03-01T02:26:35;6.38;;;5.70;;
817;SDS011;391;51.052;6.954;2023-03-01T02:28:46;5.75;;;5.13;;
817;SDS011;391;51.052;6.954;2023-03-01T02:30:50;6.05;;;5.18;;
817;SDS011;391;51.052;6.954;2023-03-01T02:33:11;7.85;;;5.22;;
817;SDS011;391;51.052;6.954;2023-03-01T02:35:15;6.82;;;4.82;;
817;SDS011;391;51.052;6.954;2023-03-01T02:37:20;6.60;;;5.70;;
817;SDS011;391;51.052;6.954;2023-03-01T02:39:28;8.27;;;5.15;;
817;SDS011;391;51.052;6.954;2023-03-01T02:41:36;6.82;;;6.13;;
817;SDS011;391;51.052;6.954;2023-03-01T02:43:42;6.57;;;5.45;;
817;SDS011;391;51.052;6.954;2023-03-01T02:45:49;7.88;;;6.30;;
817;SDS011;391;51.052;6.954;2023-03-01T02:47:55;5.80;;;5.20;;
817;SDS011;391;51.052;6.954;2023-03-01T02:50:04;6.68;;;5.88;;
817;SDS011;391;51.052;6.954;2023-03-01T02:52:23;6.57;;;5.70;;
817;SDS011;391;51.052;6.954;2023-03-01T02:54:34;10.50;;;5.45;;
817;SDS011;391;51.052;6.954;2023-03-01T02:56:43;6.65;;;5.93;;
817;SDS011;391;51.052;6.954;2023-03-01T02:58:51;5.70;;;5.20;;
817;SDS011;391;51.052;6.954;2023-03-01T03:00:57;5.68;;;5.13;;
817;SDS011;391;51.052;6.954;2023-03-01T03:03:03;9.60;;;5.90;;
817;SDS011;391;51.052;6.954;2023-03-01T03:05:07;8.38;;;6.63;;
817;SDS011;391;51.052;6.954;2023-03-01T03:07:12;5.82;;;4.88;;
817;SDS011;391;51.052;6.954;2023-03-01T03:09:17;7.32;;;5.22;;
817;SDS011;391;51.052;6.954;2023-03-01T03:11:21;7.57;;;6.15;;
817;SDS011;391;51.052;6.954;2023-03-01T03:13:25;5.97;;;5.38;;
817;SDS011;391;51.052;6.954;2023-03-01T03:15:35;6.60;;;5.30;;
817;SDS011;391;51.052;6.954;2023-03-01T03:17:41;5.70;;;5.15;;
817;SDS011;391;51.052;6.954;2023-03-01T03:19:47;5.97;;;5.40;;
817;SDS011;391;51.052;6.954;2023-03-01T03:21:50;6.32;;;5.63;;
817;SDS011;391;51.052;6.954;2023-03-01T03:23:54;7.57;;;6.75;;
817;SDS011;391;51.052;6.954;2023-03-01T03:26:00;7.82;;;5.68;;
817;SDS011;391;51.052;6.954;2023-03-01T03:28:06;7.45;;;6.03;;
817;SDS011;391;51.052;6.954;2023-03-01T03:30:13;7.45;;;6.20;;
817;SDS011;391;51.052;6.954;2023-03-01T03:32:18;6.65;;;5.85;;
817;SDS011;391;51.052;6.954;2023-03-01T03:34:23;7.60;;;6.50;;
817;SDS011;391;51.052;6.954;2023-03-01T03:36:26;6.53;;;5.78;;
817;SDS011;391;51.052;6.954;2023-03-01T03:38:29;6.63;;;6.03;;
817;SDS011;391;51.052;6.954;2023-03-01T03:40:35;5.25;;;4.75;;
817;SDS011;391;51.052;6.954;2023-03-01T03:42:39;7.95;;;5.50;;
817;SDS011;391;51.052;6.954;2023-03-01T03:44:42;6.68;;;5.53;;
817;SDS011;391;51.052;6.954;2023-03-01T03:46:46;6.93;;;6.18;;
817;SDS011;391;51.052;6.954;2023-03-01T03:48:49;7.57;;;5.60;;
817;SDS011;391;51.052;6.954;2023-03-01T03:50:55;7.40;;;6.07;;
817;SDS011;391;51.052;6.954;2023-03-01T03:53:00;8.30;;;5.75;;
817;SDS011;391;51.052;6.954;2023-03-01T03:55:04;8.15;;;5.93;;
817;SDS011;391;51.052;6.954;2023-03-01T03:57:12;6.43;;;5.85;;
817;SDS011;391;51.052;6.954;2023-03-01T03:59:16;6.25;;;5.65;;
817;SDS011;391;51.052;6.954;2023-03-01T04:01:19;8.02;;;6.35;;
817;SDS011;391;51.052;6.954;2023-03-01T04:03:23;8.65;;;6.68;;
817;SDS011;391;51.052;6.954;2023-03-01T04:05:27;5.97;;;5.32;;
817;SDS011;391;51.052;6.954;2023-03-01T04:07:32;6.25;;;5.57;;
817;SDS011;391;51.052;6.954;2023-03-01T04:09:36;6.43;;;5.63;;
817;SDS011;391;51.052;6.954;2023-03-01T04:11:39;6.68;;;6.05;;
817;SDS011;391;51.052;6.954;2023-03-01T04:13:43;5.60;;;5.10;;
817;SDS011;391;51.052;6.954;2023-03-01T04:15:46;6.28;;;5.63;;
817;SDS011;391;51.052;6.954;2023-03-01T04:17:52;6.68;;;4.90;;
817;SDS011;391;51.052;6.954;2023-03-01T04:20:00;7.28;;;5.80;;
817;SDS011;391;51.052;6.954;2023-03-01T04:22:07;6.97;;;5.90;;
817;SDS011;391;51.052;6.954;2023-03-01T04:24:16;7.72;;;5.90;;
817;SDS011;391;51.052;6.954;2023-03-01T04:26:20;7.72;;;6.45;;
817;SDS011;391;51.052;6.954;2023-03-01T04:28:24;12.88;;;8.00;;
817;SDS011;391;51.052;6.954;2023-03-01T04:30:29;9.65;;;5.85;;
817;SDS011;391;51.052;6.954;2023-03-01T04:32:37;8.10;;;7.03;;
817;SDS011;391;51.052;6.954;2023-03-01T04:34:40;6.95;;;6.20;;
817;SDS011;391;51.052;6.954;2023-03-01T04:36:44;8.50;;;7.25;;
817;SDS011;391;51.052;6.954;2023-03-01T04:38:48;10.55;;;7.20;;
817;SDS011;391;51.052;6.954;2023-03-01T04:40:53;9.88;;;8.18;;
817;SDS011;391;51.052;6.954;2023-03-01T04:42:56;10.93;;;7.15;;
817;SDS011;391;51.052;6.954;2023-03-01T04:44:59;8.18;;;6.20;;
817;SDS011;391;51.052;6.954;2023-03-01T04:47:03;6.82;;;6.13;;
817;SDS011;391;51.052;6.954;2023-03-01T04:49:07;10.23;;;7.47;;
817;SDS011;391;51.052;6.954;2023-03-01T04:51:10;9.70;;;6.93;;
817;SDS011;391;51.052;6.954;2023-03-01T04:53:15;8.10;;;6.78;;
817;SDS011;391;51.052;6.954;2023-03-01T04:55:20;6.28;;;5.68;;
817;SDS011;391;51.052;6.954;2023-03-01T04:57:25;10.02;;;7.15;;
817;SDS011;391;51.052;6.954;2023-03-01T04:59:29;12.45;;;10.43;;
817;SDS011;391;51.052;6.954;2023-03-01T05:01:32;17.40;;;12.40;;
817;SDS011;391;51.052;6.954;2023-03-01T05:03:37;15.65;;;11.02;;
817;SDS011;391;51.052;6.954;2023-03-01T05:05:42;13.45;;;10.65;;
817;SDS011;391;51.052;6.954;2023-03-01T05:07:46;10.18;;;8.63;;
817;SDS011;391;51.052;6.954;2023-03-01T05:09:49;9.35;;;8.45;;
817;SDS011;391;51.052;6.954;2023-03-01T05:11:55;7.95;;;7.15;;
817;SDS011;391;51.052;6.954;2023-03-01T05:14:00;9.07;;;6.85;;
817;SDS011;391;51.052;6.954;2023-03-01T05:16:04;10.32;;;7.65;;
817;SDS011;391;51.052;6.954;2023-03-01T05:18:13;8.23;;;7.22;;
817;SDS011;391;51.052;6.954;2023-03-01T05:20:17;8.80;;;7.13;;
817;SDS011;391;51.052;6.954;2023-03-01T05:22:24;10.00;;;7.15;;
817;SDS011;391;51.052;6.954;2023-03-01T05:24:28;8.35;;;6.63;;
817;SDS011;391;51.052;6.954;2023-03-01T05:26:33;9.30;;;6.30;;
817;SDS011;391;51.052;6.954;2023-03-01T05:28:42;7.65;;;7.03;;
817;SDS011;391;51.052;6.954;2023-03-01T05:30:47;7.18;;;6.05;;
817;SDS011;391;51.052;6.954;2023-03-01T05:32:53;7.05;;;5.75;;
817;SDS011;391;51.052;6.954;2023-03-01T05:34:57;11.70;;;9.50;;
817;SDS011;391;51.052;6.954;2023-03-01T05:37:01;12.00;;;9.73;;
817;SDS011;391;51.052;6.954;2023-03-01T05:39:05;10.00;;;7.03;;
817;SDS011;391;51.052;6.954;2023-03-01T05:41:13;9.00;;;7.65;;
817;SDS011;391;51.052;6.954;2023-03-01T05:43:18;10.23;;;7.57;;
817;SDS011;391;51.052;6.954;2023-03-01T05:45:22;12.27;;;7.55;;
817;SDS011;391;51.052;6.954;2023-03-01T05:47:28;9.10;;;6.70;;
817;SDS011;391;51.052;6.954;2023-03-01T05:49:33;7.20;;;6.10;;
817;SDS011;391;51.052;6.954;2023-03-01T05:51:39;8.73;;;7.85;;
817;SDS011;391;51.052;6.954;2023-03-01T05:53:43;10.00;;;7.88;;
817;SDS011;391;51.052;6.954;2023-03-01T05:55:47;7.30;;;6.07;;
817;SDS011;391;51.052;6.954;2023-03-01T05:57:51;9.13;;;7.80;;
817;SDS011;391;51.052;6.954;2023-03-01T05:59:55;8.35;;;6.57;;
817;SDS011;391;51.052;6.954;2023-03-01T06:01:58;8.80;;;7.28;;
817;SDS011;391;51.052;6.954;2023-03-01T06:04:03;7.72;;;6.93;;
817;SDS011;391;51.052;6.954;2023-03-01T06:06:07;8.23;;;7.43;;
817;SDS011;391;51.052;6.954;2023-03-01T06:08:11;10.60;;;7.28;;
817;SDS011;391;51.052;6.954;2023-03-01T06:10:15;8.48;;;7.05;;
817;SDS011;391;51.052;6.954;2023-03-01T06:12:19;7.22;;;6.22;;
817;SDS011;391;51.052;6.954;2023-03-01T06:14:23;7.97;;;6.70;;
817;SDS011;391;51.052;6.954;2023-03-01T06:16:26;8.98;;;7.35;;
817;SDS011;391;51.052;6.954;2023-03-01T06:18:31;8.63;;;7.80;;
817;SDS011;391;51.052;6.954;2023-03-01T06:20:36;10.23;;;7.82;;
817;SDS011;391;51.052;6.954;2023-03-01T06:22:39;9.00;;;8.10;;
817;SDS011;391;51.052;6.954;2023-03-01T06:24:43;12.95;;;10.05;;
817;SDS011;391;51.052;6.954;2023-03-01T06:26:47;12.75;;;8.57;;
817;SDS011;391;51.052;6.954;2023-03-01T06:28:50;11.20;;;9.63;;
817;SDS011;391;51.052;6.954;2023-03-01T06:30:54;9.95;;;8.88;;
817;SDS011;391;51.052;6.954;2023-03-01T06:32:57;12.00;;;9.45;;
817;SDS011;391;51.052;6.954;2023-03-01T06:35:03;9.35;;;8.35;;
817;SDS011;391;51.052;6.954;2023-03-01T06:37:09;12.48;;;9.77;;
817;SDS011;391;51.052;6.954;2023-03-01T06:39:12;11.38;;;9.55;;
817;SDS011;391;51.052;6.954;2023-03-01T06:41:16;13.55;;;10.07;;
817;SDS011;391;51.052;6.954;2023-03-01T06:43:20;13.13;;;10.25;;
817;SDS011;391;51.052;6.954;2023-03-01T06:45:24;11.52;;;10.48;;
817;SDS011;391;51.052;6.954;2023-03-01T06:47:27;12.23;;;9.73;;
817;SDS011;391;51.052;6.954;2023-03-01T06:49:31;12.68;;;9.50;;
817;SDS011;391;51.052;6.954;2023-03-01T06:51:35;12.52;;;9.95;;
817;SDS011;391;51.052;6.954;2023-03-01T06:53:40;17.75;;;11.45;;
817;SDS011;391;51.052;6.954;2023-03-01T06:55:44;12.82;;;10.20;;
817;SDS011;391;51.052;6.954;2023-03-01T06:57:47;15.00;;;10.95;;
817;SDS011;391;51.052;6.954;2023-03-01T06:59:51;16.05;;;12.32;;
817;SDS011;391;51.052;6.954;2023-03-01T07:01:54;15.55;;;12.10;;
817;SDS011;391;51.052;6.954;2023-03-01T07:03:58;14.48;;;10.90;;
817;SDS011;391;51.052;6.954;2023-03-01T07:06:01;10.90;;;8.30;;
817;SDS011;391;51.052;6.954;2023-03-01T07:08:05;25.08;;;14.30;;
817;SDS011;391;51.052;6.954;2023-03-01T07:10:10;25.33;;;17.98;;
817;SDS011;391;51.052;6.954;2023-03-01T07:12:15;25.88;;;15.63;;
817;SDS011;391;51.052;6.954;2023-03-01T07:14:18;22.80;;;15.85;;
817;SDS011;391;51.052;6.954;2023-03-01T07:16:22;22.15;;;17.48;;
817;SDS011;391;51.052;6.954;2023-03-01T07:18:26;18.90;;;13.93;;
817;SDS011;391;51.052;6.954;2023-03-01T07:20:29;18.85;;;13.63;;
817;SDS011;391;51.052;6.954;2023-03-01T07:22:33;17.73;;;14.07;;
817;SDS011;391;51.052;6.954;2023-03-01T07:24:36;16.65;;;13.63;;
817;SDS011;391;51.052;6.954;2023-03-01T07:26:41;15.05;;;12.15;;
817;SDS011;391;51.052;6.954;2023-03-01T07:28:44;14.88;;;11.05;;
817;SDS011;391;51.052;6.954;2023-03-01T07:30:48;12.93;;;10.25;;
817;SDS011;391;51.052;6.954;2023-03-01T07:32:52;13.25;;;10.98;;
817;SDS011;391;51.052;6.954;2023-03-01T07:34:56;17.30;;;11.30;;
817;SDS011;391;51.052;6.954;2023-03-01T07:37:00;11.07;;;9.93;;
817;SDS011;391;51.052;6.954;2023-03-01T07:39:03;11.05;;;9.60;;
817;SDS011;391;51.052;6.954;2023-03-01T07:41:06;15.32;;;10.35;;
817;SDS011;391;51.052;6.954;2023-03-01T07:43:12;12.40;;;9.95;;
817;SDS011;391;51.052;6.954;2023-03-01T07:45:15;13.52;;;10.85;;
817;SDS011;391;51.052;6.954;2023-03-01T07:47:19;12.40;;;9.32;;
817;SDS011;391;51.052;6.954;2023-03-01T07:49:22;11.43;;;9.18;;
817;SDS011;391;51.052;6.954;2023-03-01T07:51:28;13.32;;;10.10;;
817;SDS011;391;51.052;6.954;2023-03-01T07:53:31;9.80;;;8.80;;
817;SDS011;391;51.052;6.954;2023-03-01T07:55:35;10.27;;;8.70;;
817;SDS011;391;51.052;6.954;2023-03-01T07:57:39;9.70;;;8.45;;
817;SDS011;391;51.052;6.954;2023-03-01T07:59:44;9.35;;;8.27;;
817;SDS011;391;51.052;6.954;2023-03-01T08:01:47;10.45;;;8.60;;
817;SDS011;391;51.052;6.954;2023-03-01T08:03:51;9.93;;;8.93;;
817;SDS011;391;51.052;6.954;2023-03-01T08:05:54;11.75;;;9.95;;
817;SDS011;391;51.052;6.954;2023-03-01T08:07:58;10.60;;;9.30;;
817;SDS011;391;51.052;6.954;2023-03-01T08:10:01;10.60;;;9.05;;
817;SDS011;391;51.052;6.954;2023-03-01T08:12:05;11.40;;;8.30;;
817;SDS011;391;51.052;6.954;2023-03-01T08:14:09;12.70;;;9.50;;
817;SDS011;391;51.052;6.954;2023-03-01T08:16:14;11.68;;;10.30;;
817;SDS011;391;51.052;6.954;2023-03-01T08:18:19;13.57;;;10.98;;
817;SDS011;391;51.052;6.954;2023-03-01T08:20:23;12.55;;;9.18;;
817;SDS011;391;51.052;6.954;2023-03-01T08:22:27;13.40;;;9.75;;
817;SDS011;391;51.052;6.954;2023-03-01T08:24:30;10.50;;;9.40;;
817;SDS011;391;51.052;6.954;2023-03-01T08:26:34;14.00;;;10.60;;
817;SDS011;391;51.052;6.954;2023-03-01T08:28:38;10.50;;;9.07;;
817;SDS011;391;51.052;6.954;2023-03-01T08:30:42;12.52;;;9.68;;
817;SDS011;391;51.052;6.954;2023-03-01T08:32:47;11.82;;;10.00;;
817;SDS011;391;51.052;6.954;2023-03-01T08:34:51;12.95;;;10.00;;
817;SDS011;391;51.052;6.954;2023-03-01T08:36:54;10.57;;;8.32;;
817;SDS011;391;51.052;6.954;2023-03-01T08:38:58;12.07;;;9.32;;
817;SDS011;391;51.052;6.954;2023-03-01T08:41:02;12.65;;;9.35;;
817;SDS011;391;51.052;6.954;2023-03-01T08:43:06;11.20;;;9.38;;
817;SDS011;391;51.052;6.954;2023-03-01T08:45:10;12.23;;;9.85;;
817;SDS011;391;51.052;6.954;2023-03-01T08:47:14;12.85;;;10.02;;
817;SDS011;391;51.052;6.954;2023-03-01T08:49:19;12.02;;;9.95;;
817;SDS011;391;51.052;6.954;2023-03-01T08:51:24;10.95;;;9.68;;
817;SDS011;391;51.052;6.954;2023-03-01T08:53:28;9.95;;;8.60;;
817;SDS011;391;51.052;6.954;2023-03-01T08:55:32;12.35;;;8.93;;
817;SDS011;391;51.052;6.954;2023-03-01T08:57:35;13.90;;;9.23;;
817;SDS011;391;51.052;6.954;2023-03-01T08:59:38;12.23;;;9.68;;
817;SDS011;391;51.052;6.954;2023-03-01T09:01:42;10.98;;;9.05;;
817;SDS011;391;51.052;6.954;2023-03-01T09:03:46;11.95;;;8.75;;
817;SDS011;391;51.052;6.954;2023-03-01T09:05:51;11.10;;;9.70;;
817;SDS011;391;51.052;6.954;2023-03-01T09:07:56;11.43;;;8.65;;
817;SDS011;391;51.052;6.954;2023-03-01T09:10:00;10.50;;;8.57;;
817;SDS011;391;51.052;6.954;2023-03-01T09:12:04;10.02;;;8.95;;
817;SDS011;391;51.052;6.954;2023-03-01T09:14:07;11.23;;;8.82;;
817;SDS011;391;51.052;6.954;2023-03-01T09:16:12;9.18;;;8.23;;
817;SDS011;391;51.052;6.954;2023-03-01T09:18:17;9.43;;;7.75;;
817;SDS011;391;51.052;6.954;2023-03-01T09:20:20;10.25;;;8.80;;
817;SDS011;391;51.052;6.954;2023-03-01T09:22:25;8.43;;;7.55;;
817;SDS011;391;51.052;6.954;2023-03-01T09:24:29;10.88;;;8.45;;
817;SDS011;391;51.052;6.954;2023-03-01T09:26:32;12.38;;;8.77;;
817;SDS011;391;51.052;6.954;2023-03-01T09:28:36;9.88;;;7.72;;
817;SDS011;391;51.052;6.954;2023-03-01T09:30:39;9.50;;;8.57;;
817;SDS011;391;51.052;6.954;2023-03-01T09:32:43;10.50;;;8.02;;
817;SDS011;391;51.052;6.954;2023-03-01T09:34:46;12.95;;;9.18;;
817;SDS011;391;51.052;6.954;2023-03-01T09:37:06;9.50;;;8.30;;
817;SDS011;391;51.052;6.954;2023-03-01T09:39:11;12.55;;;9.05;;
817;SDS011;391;51.052;6.954;2023-03-01T09:41:18;10.73;;;8.50;;
817;SDS011;391;51.052;6.954;2023-03-01T09:43:40;11.52;;;9.07;;
817;SDS011;391;51.052;6.954;2023-03-01T09:45:48;10.75;;;9.60;;
817;SDS011;391;51.052;6.954;2023-03-01T09:47:56;9.47;;;7.67;;
817;SDS011;391;51.052;6.954;2023-03-01T09:50:01;10.48;;;7.82;;
817;SDS011;391;51.052;6.954;2023-03-01T09:52:11;8.87;;;7.40;;
817;SDS011;391;51.052;6.954;2023-03-01T09:54:25;11.65;;;8.38;;
817;SDS011;391;51.052;6.954;2023-03-01T09:56:30;8.60;;;7.70;;
817;SDS011;391;51.052;6.954;2023-03-01T09:58:38;13.05;;;8.50;;
817;SDS011;391;51.052;6.954;2023-03-01T10:00:49;9.90;;;8.73;;
817;SDS011;391;51.052;6.954;2023-03-01T10:02:56;11.80;;;8.57;;
817;SDS011;391;51.052;6.954;2023-03-01T10:05:05;10.83;;;8.90;;
817;SDS011;391;51.052;6.954;2023-03-01T10:07:20;11.17;;;8.63;;
817;SDS011;391;51.052;6.954;2023-03-01T10:09:32;8.63;;;7.77;;
817;SDS011;391;51.052;6.954;2023-03-01T10:11:39;9.53;;;8.30;;
817;SDS011;391;51.052;6.954;2023-03-01T10:13:48;12.07;;;8.40;;
817;SDS011;391;51.052;6.954;2023-03-01T10:16:00;9.60;;;8.60;;
817;SDS011;391;51.052;6.954;2023-03-01T10:18:09;10.70;;;8.37;;
817;SDS011;391;51.052;6.954;2023-03-01T10:20:18;8.37;;;7.63;;
817;SDS011;391;51.052;6.954;2023-03-01T10:22:24;10.30;;;8.27;;
817;SDS011;391;51.052;6.954;2023-03-01T10:24:34;10.23;;;8.97;;
817;SDS011;391;51.052;6.954;2023-03-01T10:26:42;8.17;;;7.37;;
817;SDS011;391;51.052;6.954;2023-03-01T10:28:54;9.10;;;7.50;;
817;SDS011;391;51.052;6.954;2023-03-01T10:31:04;12.20;;;9.17;;
817;SDS011;391;51.052;6.954;2023-03-01T10:33:13;10.43;;;8.80;;
817;SDS011;391;51.052;6.954;2023-03-01T10:35:21;8.30;;;7.50;;
817;SDS011;391;51.052;6.954;2023-03-01T10:37:25;10.27;;;8.63;;
817;SDS011;391;51.052;6.954;2023-03-01T10:39:29;9.97;;;8.77;;
817;SDS011;391;51.052;6.954;2023-03-01T10:41:37;8.40;;;7.50;;
817;SDS011;391;51.052;6.954;2023-03-01T10:43:56;10.20;;;7.50;;
817;SDS011;391;51.052;6.954;2023-03-01T10:46:01;12.23;;;8.53;;
817;SDS011;391;51.052;6.954;2023-03-01T10:48:08;10.67;;;7.90;;
817;SDS011;391;51.052;6.954;2023-03-01T10:50:19;10.10;;;8.40;;
817;SDS011;391;51.052;6.954;2023-03-01T10:52:25;9.10;;;8.03;;
817;SDS011;391;51.052;6.954;2023-03-01T10:54:31;8.73;;;7.40;;
817;SDS011;391;51.052;6.954;2023-03-01T10:56:46;8.60;;;7.77;;
817;SDS011;391;51.052;6.954;2023-03-01T10:58:58;9.40;;;8.27;;
817;SDS011;391;51.052;6.954;2023-03-01T11:01:04;9.23;;;8.10;;
817;SDS011;391;51.052;6.954;2023-03-01T11:03:11;8.93;;;7.77;;
817;SDS011;391;51.052;6.954;2023-03-01T11:05:17;8.47;;;7.67;;
817;SDS011;391;51.052;6.954;2023-03-01T11:07:27;8.90;;;8.00;;
817;SDS011;391;51.052;6.954;2023-03-01T11:09:31;10.57;;;9.07;;
817;SDS011;391;51.052;6.954;2023-03-01T11:11:40;8.43;;;7.63;;
817;SDS011;391;51.052;6.954;2023-03-01T11:13:49;12.40;;;9.07;;
817;SDS011;391;51.052;6.954;2023-03-01T11:15:58;9.60;;;8.60;;
817;SDS011;391;51.052;6.954;2023-03-01T11:18:02;12.80;;;8.53;;
817;SDS011;391;51.052;6.954;2023-03-01T11:20:17;11.03;;;9.40;;
817;SDS011;391;51.052;6.954;2023-03-01T11:22:30;10.30;;;9.00;;
817;SDS011;391;51.052;6.954;2023-03-01T11:24:39;9.23;;;8.30;;
817;SDS011;391;51.052;6.954;2023-03-01T11:26:45;8.60;;;7.70;;
817;SDS011;391;51.052;6.954;2023-03-01T11:28:55;9.90;;;8.90;;
817;SDS011;391;51.052;6.954;2023-03-01T11:31:05;10.80;;;8.20;;
817;SDS011;391;51.052;6.954;2023-03-01T11:33:16;10.03;;;9.03;;
817;SDS011;391;51.052;6.954;2023-03-01T11:35:25;10.43;;;8.27;;
817;SDS011;391;51.052;6.954;2023-03-01T11:37:32;10.03;;;8.00;;
817;SDS011;391;51.052;6.954;2023-03-01T11:39:42;10.13;;;8.97;;
817;SDS011;391;51.052;6.954;2023-03-01T11:41:50;9.60;;;8.60;;
817;SDS011;391;51.052;6.954;2023-03-01T11:44:21;9.37;;;7.67;;
817;SDS011;391;51.052;6.954;2023-03-01T11:46:40;9.90;;;8.20;;
817;SDS011;391;51.052;6.954;2023-03-01T11:48:53;12.13;;;9.23;;
817;SDS011;391;51.052;6.954;2023-03-01T11:51:04;10.97;;;8.57;;
817;SDS011;391;51.052;6.954;2023-03-01T11:55:53;8.97;;;8.07;;
817;SDS011;391;51.052;6.954;2023-03-01T11:58:11;9.03;;;8.07;;
817;SDS011;391;51.052;6.954;2023-03-01T12:00:33;15.90;;;14.20;;
817;SDS011;391;51.052;6.954;2023-03-01T12:02:54;11.30;;;9.57;;
817;SDS011;391;51.052;6.954;2023-03-01T12:05:20;11.23;;;9.70;;
817;SDS011;391;51.052;6.954;2023-03-01T12:07:37;10.60;;;8.80;;
817;SDS011;391;51.052;6.954;2023-03-01T12:09:52;9.80;;;8.80;;
817;SDS011;391;51.052;6.954;2023-03-01T12:14:43;9.20;;;8.30;;
817;SDS011;391;51.052;6.954;2023-03-01T12:19:33;9.77;;;8.87;;
817;SDS011;391;51.052;6.954;2023-03-01T12:21:53;9.53;;;8.73;;
817;SDS011;391;51.052;6.954;2023-03-01T12:24:14;11.33;;;8.20;;
817;SDS011;391;51.052;6.954;2023-03-01T12:26:44;7.90;;;7.20;;
817;SDS011;391;51.052;6.954;2023-03-01T12:29:00;7.50;;;6.70;;
817;SDS011;391;51.052;6.954;2023-03-01T12:31:16;11.33;;;8.00;;
817;SDS011;391;51.052;6.954;2023-03-01T12:33:49;11.67;;;8.50;;
817;SDS011;391;51.052;6.954;2023-03-01T12:36:10;9.43;;;8.27;;
817;SDS011;391;51.052;6.954;2023-03-01T12:38:31;10.70;;;8.40;;
817;SDS011;391;51.052;6.954;2023-03-01T12:40:43;10.43;;;7.43;;
817;SDS011;391;51.052;6.954;2023-03-01T12:43:08;8.20;;;7.40;;
817;SDS011;391;51.052;6.954;2023-03-01T12:45:31;10.10;;;9.17;;
817;SDS011;391;51.052;6.954;2023-03-01T12:47:53;9.37;;;6.97;;
817;SDS011;391;51.052;6.954;2023-03-01T12:50:12;9.70;;;8.70;;
817;SDS011;391;51.052;6.954;2023-03-01T12:52:22;11.90;;;10.03;;
817;SDS011;391;51.052;6.954;2023-03-01T12:54:31;8.20;;;7.40;;
817;SDS011;391;51.052;6.954;2023-03-01T12:56:36;9.87;;;8.10;;
817;SDS011;391;51.052;6.954;2023-03-01T12:58:41;10.30;;;9.20;;
817;SDS011;391;51.052;6.954;2023-03-01T13:01:08;9.83;;;8.77;;
817;SDS011;391;51.052;6.954;2023-03-01T13:03:21;9.00;;;8.20;;
817;SDS011;391;51.052;6.954;2023-03-01T13:05:36;10.70;;;9.70;;
817;SDS011;391;51.052;6.954;2023-03-01T13:07:49;8.03;;;7.13;;
817;SDS011;391;51.052;6.954;2023-03-01T13:12:44;7.27;;;6.67;;
817;SDS011;391;51.052;6.954;2023-03-01T13:14:53;11.57;;;10.40;;
817;SDS011;391;51.052;6.954;2023-03-01T13:16:57;9.60;;;8.60;;
817;SDS011;391;51.052;6.954;2023-03-01T13:19:07;7.97;;;7.17;;
817;SDS011;391;51.052;6.954;2023-03-01T13:21:28;7.73;;;7.03;;
817;SDS011;391;51.052;6.954;2023-03-01T13:23:34;8.73;;;7.93;;
817;SDS011;391;51.052;6.954;2023-03-01T13:30:45;8.70;;;7.80;;
817;SDS011;391;51.052;6.954;2023-03-01T13:32:48;8.53;;;7.73;;
817;SDS011;391;51.052;6.954;2023-03-01T13:34:55;6.50;;;5.63;;
817;SDS011;391;51.052;6.954;2023-03-01T13:37:18;6.90;;;6.20;;
817;SDS011;391;51.052;6.954;2023-03-01T13:39:40;7.40;;;6.70;;
817;SDS011;391;51.052;6.954;2023-03-01T13:41:48;8.90;;;8.03;;